Impacts TAF Board INFO
FOR SITUATIONAL AWARENESS. NOT TO BE USED FOR FLIGHT PLANNING PURPOSES.
IDs:

KMCO - Orlando Intl, FL, US

Issued at 1738 UTC 17 Jan 2018
Updated at 1746 UTC 17 Jan 2018
Potential Impact None Slight Moderate High
Time<<18/06Z 18/07Z 18/08Z 18/09Z 18/10Z 18/11Z 18/12Z 18/13Z 18/14Z 18/15Z 18/16Z 18/17Z 18/18Z>>
Type PRVL PRVL PRVL PRVL PRVL PRVL PRVL PRVL PRVL PRVL PRVL PRVL PRVL
VIS >6 >6 >6 >6 >6 >6 >6 >6 >6 >6 >6 >6 >6
CIG -- -- -- -- -- -- -- -- -- -- -- -- --
Cover SKC SKC SKC SKC SKC SKC SKC SKC SKC SKC SKC SKC SKC
FltCat VFR VFR VFR VFR VFR VFR VFR VFR VFR VFR VFR VFR VFR
WX -- -- -- -- -- -- -- -- -- -- -- -- --
WDir 330 330 330 330 330 340 340 340 340 340 340 340 340
WSpd 13 13 13 13 13 10 10 10 10 10 10 10 10
WGst -- -- -- -- -- -- -- -- -- -- -- -- --

Raw TAF
KMCO 171738Z 1718/1824 30012KT P6SM SCT250
  TEMPO 1720/1721 BKN015
  FM172100 30012KT P6SM SCT015 BKN035
  FM180000 33013KT P6SM SKC
  FM181100 34010KT P6SM SKC


METAR Board
Radar Display
Forecast Discussion

FOR SITUATIONAL AWARENESS. NOT TO BE USED FOR FLIGHT PLANNING PURPOSES.